sensor_id;sensor_type;location;lat;lon;timestamp;P1;durP1;ratioP1;P2;durP2;ratioP2
10872;SDS011;34586;53.616;10.032;2023-04-29T00:01:52;14.37;;;11.97;;
10872;SDS011;34586;53.616;10.032;2023-04-29T00:04:22;17.07;;;12.50;;
10872;SDS011;34586;53.616;10.032;2023-04-29T00:06:51;15.33;;;12.87;;
10872;SDS011;34586;53.616;10.032;2023-04-29T00:09:17;16.33;;;12.93;;
10872;SDS011;34586;53.616;10.032;2023-04-29T00:11:42;15.93;;;13.70;;
10872;SDS011;34586;53.616;10.032;2023-04-29T00:14:08;14.57;;;13.03;;
10872;SDS011;34586;53.616;10.032;2023-04-29T00:16:33;15.23;;;13.13;;
10872;SDS011;34586;53.616;10.032;2023-04-29T00:18:59;16.87;;;14.07;;
10872;SDS011;34586;53.616;10.032;2023-04-29T00:21:25;17.23;;;13.53;;
10872;SDS011;34586;53.616;10.032;2023-04-29T00:23:51;17.23;;;13.57;;
10872;SDS011;34586;53.616;10.032;2023-04-29T00:26:17;17.53;;;13.73;;
10872;SDS011;34586;53.616;10.032;2023-04-29T00:28:43;14.17;;;12.67;;
10872;SDS011;34586;53.616;10.032;2023-04-29T00:31:08;15.90;;;13.63;;
10872;SDS011;34586;53.616;10.032;2023-04-29T00:33:34;15.77;;;13.20;;
10872;SDS011;34586;53.616;10.032;2023-04-29T00:36:00;15.70;;;12.87;;
10872;SDS011;34586;53.616;10.032;2023-04-29T00:38:26;18.23;;;12.90;;
10872;SDS011;34586;53.616;10.032;2023-04-29T00:40:52;16.87;;;13.47;;
10872;SDS011;34586;53.616;10.032;2023-04-29T00:43:20;15.47;;;13.27;;
10872;SDS011;34586;53.616;10.032;2023-04-29T00:45:46;19.20;;;13.70;;
10872;SDS011;34586;53.616;10.032;2023-04-29T00:48:12;17.73;;;13.77;;
10872;SDS011;34586;53.616;10.032;2023-04-29T00:50:39;16.20;;;13.20;;
10872;SDS011;34586;53.616;10.032;2023-04-29T00:53:05;16.37;;;13.80;;
10872;SDS011;34586;53.616;10.032;2023-04-29T00:55:32;14.30;;;12.80;;
10872;SDS011;34586;53.616;10.032;2023-04-29T00:57:59;16.77;;;13.80;;
10872;SDS011;34586;53.616;10.032;2023-04-29T01:00:26;14.83;;;13.33;;
10872;SDS011;34586;53.616;10.032;2023-04-29T01:02:52;15.03;;;12.70;;
10872;SDS011;34586;53.616;10.032;2023-04-29T01:05:20;17.67;;;13.77;;
10872;SDS011;34586;53.616;10.032;2023-04-29T01:10:19;18.17;;;13.60;;
10872;SDS011;34586;53.616;10.032;2023-04-29T01:18:32;17.07;;;12.63;;
10872;SDS011;34586;53.616;10.032;2023-04-29T01:21:03;14.70;;;13.03;;
10872;SDS011;34586;53.616;10.032;2023-04-29T01:23:30;19.33;;;13.97;;
10872;SDS011;34586;53.616;10.032;2023-04-29T01:25:56;15.90;;;13.20;;
10872;SDS011;34586;53.616;10.032;2023-04-29T01:31:35;15.97;;;13.83;;
10872;SDS011;34586;53.616;10.032;2023-04-29T01:34:18;17.93;;;13.10;;
10872;SDS011;34586;53.616;10.032;2023-04-29T01:36:57;18.77;;;13.80;;
10872;SDS011;34586;53.616;10.032;2023-04-29T01:39:39;18.50;;;14.50;;
10872;SDS011;34586;53.616;10.032;2023-04-29T01:42:35;17.93;;;14.03;;
10872;SDS011;34586;53.616;10.032;2023-04-29T01:45:09;16.13;;;14.23;;
10872;SDS011;34586;53.616;10.032;2023-04-29T01:47:36;17.00;;;14.40;;
10872;SDS011;34586;53.616;10.032;2023-04-29T01:50:03;16.77;;;14.97;;
10872;SDS011;34586;53.616;10.032;2023-04-29T01:52:29;16.70;;;14.93;;
10872;SDS011;34586;53.616;10.032;2023-04-29T01:54:54;19.90;;;15.57;;
10872;SDS011;34586;53.616;10.032;2023-04-29T01:57:21;16.63;;;14.53;;
10872;SDS011;34586;53.616;10.032;2023-04-29T01:59:47;18.17;;;14.90;;
10872;SDS011;34586;53.616;10.032;2023-04-29T02:02:12;17.03;;;15.23;;
10872;SDS011;34586;53.616;10.032;2023-04-29T02:04:39;18.03;;;15.73;;
10872;SDS011;34586;53.616;10.032;2023-04-29T02:07:06;20.03;;;15.23;;
10872;SDS011;34586;53.616;10.032;2023-04-29T02:09:32;20.17;;;16.07;;
10872;SDS011;34586;53.616;10.032;2023-04-29T02:11:58;18.37;;;15.90;;
10872;SDS011;34586;53.616;10.032;2023-04-29T02:14:23;17.03;;;15.17;;
10872;SDS011;34586;53.616;10.032;2023-04-29T02:16:49;19.40;;;17.07;;
10872;SDS011;34586;53.616;10.032;2023-04-29T02:19:14;18.70;;;16.70;;
10872;SDS011;34586;53.616;10.032;2023-04-29T02:21:40;20.10;;;17.33;;
10872;SDS011;34586;53.616;10.032;2023-04-29T02:24:06;19.87;;;16.77;;
10872;SDS011;34586;53.616;10.032;2023-04-29T02:26:31;24.27;;;18.70;;
10872;SDS011;34586;53.616;10.032;2023-04-29T02:28:58;21.73;;;17.53;;
10872;SDS011;34586;53.616;10.032;2023-04-29T02:31:24;22.50;;;17.90;;
10872;SDS011;34586;53.616;10.032;2023-04-29T02:33:50;23.10;;;17.43;;
10872;SDS011;34586;53.616;10.032;2023-04-29T02:36:15;20.20;;;17.97;;
10872;SDS011;34586;53.616;10.032;2023-04-29T02:38:42;19.53;;;16.70;;
10872;SDS011;34586;53.616;10.032;2023-04-29T02:41:08;22.63;;;17.00;;
10872;SDS011;34586;53.616;10.032;2023-04-29T02:43:33;21.17;;;17.13;;
10872;SDS011;34586;53.616;10.032;2023-04-29T02:46:00;18.50;;;15.17;;
10872;SDS011;34586;53.616;10.032;2023-04-29T02:48:26;20.90;;;15.93;;
10872;SDS011;34586;53.616;10.032;2023-04-29T02:50:52;18.83;;;16.37;;
10872;SDS011;34586;53.616;10.032;2023-04-29T02:53:18;19.40;;;16.13;;
10872;SDS011;34586;53.616;10.032;2023-04-29T02:55:44;18.67;;;15.50;;
10872;SDS011;34586;53.616;10.032;2023-04-29T02:58:11;17.30;;;15.50;;
10872;SDS011;34586;53.616;10.032;2023-04-29T03:00:36;19.27;;;15.87;;
10872;SDS011;34586;53.616;10.032;2023-04-29T03:03:04;17.40;;;15.60;;
10872;SDS011;34586;53.616;10.032;2023-04-29T03:05:31;21.80;;;16.67;;
10872;SDS011;34586;53.616;10.032;2023-04-29T03:07:57;22.60;;;16.37;;
10872;SDS011;34586;53.616;10.032;2023-04-29T03:10:24;17.23;;;15.10;;
10872;SDS011;34586;53.616;10.032;2023-04-29T03:12:49;17.80;;;15.87;;
10872;SDS011;34586;53.616;10.032;2023-04-29T03:15:15;18.07;;;16.13;;
10872;SDS011;34586;53.616;10.032;2023-04-29T03:17:41;19.13;;;16.17;;
10872;SDS011;34586;53.616;10.032;2023-04-29T03:20:07;18.00;;;15.73;;
10872;SDS011;34586;53.616;10.032;2023-04-29T03:22:34;21.10;;;16.63;;
10872;SDS011;34586;53.616;10.032;2023-04-29T03:25:00;19.90;;;16.43;;
10872;SDS011;34586;53.616;10.032;2023-04-29T03:27:26;19.77;;;16.20;;
10872;SDS011;34586;53.616;10.032;2023-04-29T03:29:52;18.47;;;16.40;;
10872;SDS011;34586;53.616;10.032;2023-04-29T03:32:17;21.47;;;17.77;;
10872;SDS011;34586;53.616;10.032;2023-04-29T03:34:43;17.83;;;16.03;;
10872;SDS011;34586;53.616;10.032;2023-04-29T03:37:08;18.37;;;15.50;;
10872;SDS011;34586;53.616;10.032;2023-04-29T03:39:35;20.57;;;16.60;;
10872;SDS011;34586;53.616;10.032;2023-04-29T03:42:01;19.63;;;15.57;;
10872;SDS011;34586;53.616;10.032;2023-04-29T03:44:27;21.13;;;16.60;;
10872;SDS011;34586;53.616;10.032;2023-04-29T03:46:53;19.83;;;17.20;;
10872;SDS011;34586;53.616;10.032;2023-04-29T03:49:19;21.83;;;16.20;;
10872;SDS011;34586;53.616;10.032;2023-04-29T03:51:44;20.13;;;17.17;;
10872;SDS011;34586;53.616;10.032;2023-04-29T03:54:11;23.23;;;17.30;;
10872;SDS011;34586;53.616;10.032;2023-04-29T03:56:37;20.77;;;17.43;;
10872;SDS011;34586;53.616;10.032;2023-04-29T03:59:06;19.73;;;16.67;;
10872;SDS011;34586;53.616;10.032;2023-04-29T04:01:32;18.43;;;16.03;;
10872;SDS011;34586;53.616;10.032;2023-04-29T04:03:59;19.20;;;16.73;;
10872;SDS011;34586;53.616;10.032;2023-04-29T04:06:24;21.30;;;17.90;;
10872;SDS011;34586;53.616;10.032;2023-04-29T04:08:51;21.33;;;17.23;;
10872;SDS011;34586;53.616;10.032;2023-04-29T04:11:17;23.20;;;18.60;;
10872;SDS011;34586;53.616;10.032;2023-04-29T04:13:42;20.40;;;18.20;;
10872;SDS011;34586;53.616;10.032;2023-04-29T04:16:08;22.37;;;17.57;;
10872;SDS011;34586;53.616;10.032;2023-04-29T04:18:35;20.70;;;17.30;;
10872;SDS011;34586;53.616;10.032;2023-04-29T04:21:08;21.63;;;17.23;;
10872;SDS011;34586;53.616;10.032;2023-04-29T04:23:35;20.67;;;17.87;;
10872;SDS011;34586;53.616;10.032;2023-04-29T04:26:02;19.73;;;16.90;;
10872;SDS011;34586;53.616;10.032;2023-04-29T04:28:27;18.40;;;16.33;;
10872;SDS011;34586;53.616;10.032;2023-04-29T04:30:53;18.20;;;16.30;;
10872;SDS011;34586;53.616;10.032;2023-04-29T04:33:19;18.23;;;16.23;;
10872;SDS011;34586;53.616;10.032;2023-04-29T04:35:44;21.20;;;17.10;;
10872;SDS011;34586;53.616;10.032;2023-04-29T04:38:10;21.77;;;16.63;;
10872;SDS011;34586;53.616;10.032;2023-04-29T04:40:39;19.90;;;16.33;;
10872;SDS011;34586;53.616;10.032;2023-04-29T04:43:06;18.23;;;16.33;;
10872;SDS011;34586;53.616;10.032;2023-04-29T04:45:31;21.20;;;16.90;;
10872;SDS011;34586;53.616;10.032;2023-04-29T04:47:57;18.67;;;15.63;;
10872;SDS011;34586;53.616;10.032;2023-04-29T04:50:22;17.27;;;15.47;;
10872;SDS011;34586;53.616;10.032;2023-04-29T04:52:48;18.00;;;15.80;;
10872;SDS011;34586;53.616;10.032;2023-04-29T04:55:14;18.60;;;15.53;;
10872;SDS011;34586;53.616;10.032;2023-04-29T04:57:39;16.53;;;14.83;;
10872;SDS011;34586;53.616;10.032;2023-04-29T05:00:05;20.23;;;15.83;;
10872;SDS011;34586;53.616;10.032;2023-04-29T05:02:31;21.63;;;16.33;;
10872;SDS011;34586;53.616;10.032;2023-04-29T05:04:57;17.27;;;15.33;;
10872;SDS011;34586;53.616;10.032;2023-04-29T05:07:22;17.20;;;15.17;;
10872;SDS011;34586;53.616;10.032;2023-04-29T05:09:49;17.60;;;14.90;;
10872;SDS011;34586;53.616;10.032;2023-04-29T05:12:15;18.90;;;15.67;;
10872;SDS011;34586;53.616;10.032;2023-04-29T05:14:41;17.33;;;14.77;;
10872;SDS011;34586;53.616;10.032;2023-04-29T05:17:06;20.93;;;15.10;;
10872;SDS011;34586;53.616;10.032;2023-04-29T05:19:35;17.70;;;14.53;;
10872;SDS011;34586;53.616;10.032;2023-04-29T05:22:00;18.33;;;14.70;;
10872;SDS011;34586;53.616;10.032;2023-04-29T05:24:26;19.23;;;14.67;;
10872;SDS011;34586;53.616;10.032;2023-04-29T05:26:53;15.33;;;13.70;;
10872;SDS011;34586;53.616;10.032;2023-04-29T05:29:19;17.93;;;13.40;;
10872;SDS011;34586;53.616;10.032;2023-04-29T05:31:45;19.87;;;14.13;;
10872;SDS011;34586;53.616;10.032;2023-04-29T05:34:11;14.93;;;13.43;;
10872;SDS011;34586;53.616;10.032;2023-04-29T05:36:37;15.13;;;13.30;;
10872;SDS011;34586;53.616;10.032;2023-04-29T05:39:02;14.33;;;12.83;;
10872;SDS011;34586;53.616;10.032;2023-04-29T05:41:28;15.20;;;12.70;;
10872;SDS011;34586;53.616;10.032;2023-04-29T05:43:54;17.03;;;12.93;;
10872;SDS011;34586;53.616;10.032;2023-04-29T05:46:19;15.17;;;11.57;;
10872;SDS011;34586;53.616;10.032;2023-04-29T05:48:46;14.10;;;11.03;;
10872;SDS011;34586;53.616;10.032;2023-04-29T05:51:13;14.77;;;12.27;;
10872;SDS011;34586;53.616;10.032;2023-04-29T05:53:39;16.13;;;11.73;;
10872;SDS011;34586;53.616;10.032;2023-04-29T05:56:05;15.60;;;11.43;;
10872;SDS011;34586;53.616;10.032;2023-04-29T05:58:32;16.60;;;11.60;;
10872;SDS011;34586;53.616;10.032;2023-04-29T06:00:58;15.80;;;11.20;;
10872;SDS011;34586;53.616;10.032;2023-04-29T06:03:24;12.13;;;10.40;;
10872;SDS011;34586;53.616;10.032;2023-04-29T06:05:50;13.73;;;9.60;;
10872;SDS011;34586;53.616;10.032;2023-04-29T06:08:15;12.87;;;9.83;;
10872;SDS011;34586;53.616;10.032;2023-04-29T06:10:41;11.80;;;9.67;;
10872;SDS011;34586;53.616;10.032;2023-04-29T06:13:08;13.70;;;9.70;;
10872;SDS011;34586;53.616;10.032;2023-04-29T06:15:34;11.50;;;9.17;;
10872;SDS011;34586;53.616;10.032;2023-04-29T06:18:01;10.43;;;8.83;;
10872;SDS011;34586;53.616;10.032;2023-04-29T06:20:28;9.40;;;8.10;;
10872;SDS011;34586;53.616;10.032;2023-04-29T06:22:53;13.63;;;9.50;;
10872;SDS011;34586;53.616;10.032;2023-04-29T06:25:19;13.83;;;8.43;;
10872;SDS011;34586;53.616;10.032;2023-04-29T06:27:45;10.90;;;8.50;;
10872;SDS011;34586;53.616;10.032;2023-04-29T06:30:11;10.87;;;8.33;;
10872;SDS011;34586;53.616;10.032;2023-04-29T06:32:37;12.60;;;8.90;;
10872;SDS011;34586;53.616;10.032;2023-04-29T06:35:03;11.90;;;8.33;;
10872;SDS011;34586;53.616;10.032;2023-04-29T06:37:29;12.57;;;8.73;;
10872;SDS011;34586;53.616;10.032;2023-04-29T06:39:55;12.00;;;9.80;;
10872;SDS011;34586;53.616;10.032;2023-04-29T06:42:20;13.17;;;9.00;;
10872;SDS011;34586;53.616;10.032;2023-04-29T06:44:47;13.63;;;9.73;;
10872;SDS011;34586;53.616;10.032;2023-04-29T06:47:14;14.23;;;9.50;;
10872;SDS011;34586;53.616;10.032;2023-04-29T06:49:40;13.07;;;9.70;;
10872;SDS011;34586;53.616;10.032;2023-04-29T06:52:08;13.77;;;9.70;;
10872;SDS011;34586;53.616;10.032;2023-04-29T06:54:34;13.07;;;9.70;;
10872;SDS011;34586;53.616;10.032;2023-04-29T06:56:59;15.83;;;9.87;;
10872;SDS011;34586;53.616;10.032;2023-04-29T06:59:26;13.67;;;9.87;;
10872;SDS011;34586;53.616;10.032;2023-04-29T07:01:51;13.73;;;9.57;;
10872;SDS011;34586;53.616;10.032;2023-04-29T07:04:17;13.83;;;9.77;;
10872;SDS011;34586;53.616;10.032;2023-04-29T07:06:43;14.33;;;9.10;;
10872;SDS011;34586;53.616;10.032;2023-04-29T07:09:11;11.13;;;8.10;;
10872;SDS011;34586;53.616;10.032;2023-04-29T07:11:38;8.33;;;7.00;;
10872;SDS011;34586;53.616;10.032;2023-04-29T07:14:03;9.33;;;6.73;;
10872;SDS011;34586;53.616;10.032;2023-04-29T07:16:29;10.60;;;6.27;;
10872;SDS011;34586;53.616;10.032;2023-04-29T07:18:55;9.93;;;7.27;;
10872;SDS011;34586;53.616;10.032;2023-04-29T07:21:20;10.03;;;6.50;;
10872;SDS011;34586;53.616;10.032;2023-04-29T07:23:47;10.17;;;6.70;;
10872;SDS011;34586;53.616;10.032;2023-04-29T07:26:14;8.17;;;6.27;;
10872;SDS011;34586;53.616;10.032;2023-04-29T07:28:41;8.20;;;6.63;;
10872;SDS011;34586;53.616;10.032;2023-04-29T07:31:07;9.20;;;5.97;;
10872;SDS011;34586;53.616;10.032;2023-04-29T07:33:34;9.70;;;5.90;;
10872;SDS011;34586;53.616;10.032;2023-04-29T07:36:00;9.40;;;6.20;;
10872;SDS011;34586;53.616;10.032;2023-04-29T07:38:26;7.27;;;5.57;;
10872;SDS011;34586;53.616;10.032;2023-04-29T07:40:53;8.70;;;5.33;;
10872;SDS011;34586;53.616;10.032;2023-04-29T07:43:19;9.30;;;5.83;;
10872;SDS011;34586;53.616;10.032;2023-04-29T07:45:45;8.33;;;6.10;;
10872;SDS011;34586;53.616;10.032;2023-04-29T07:48:13;9.67;;;5.97;;
10872;SDS011;34586;53.616;10.032;2023-04-29T07:50:38;8.07;;;5.57;;
10872;SDS011;34586;53.616;10.032;2023-04-29T07:53:04;8.33;;;6.03;;
10872;SDS011;34586;53.616;10.032;2023-04-29T07:55:30;8.10;;;6.63;;
10872;SDS011;34586;53.616;10.032;2023-04-29T07:57:56;7.30;;;5.90;;
10872;SDS011;34586;53.616;10.032;2023-04-29T08:00:23;5.90;;;5.33;;
10872;SDS011;34586;53.616;10.032;2023-04-29T08:02:52;8.73;;;5.47;;
10872;SDS011;34586;53.616;10.032;2023-04-29T08:05:18;7.87;;;5.47;;
10872;SDS011;34586;53.616;10.032;2023-04-29T08:07:47;7.90;;;5.80;;
10872;SDS011;34586;53.616;10.032;2023-04-29T08:10:13;6.67;;;5.00;;
10872;SDS011;34586;53.616;10.032;2023-04-29T08:12:39;12.83;;;6.10;;
10872;SDS011;34586;53.616;10.032;2023-04-29T08:15:05;7.23;;;5.60;;
10872;SDS011;34586;53.616;10.032;2023-04-29T08:17:31;8.30;;;5.00;;
10872;SDS011;34586;53.616;10.032;2023-04-29T08:19:57;9.87;;;5.60;;
10872;SDS011;34586;53.616;10.032;2023-04-29T08:22:22;7.03;;;5.37;;
10872;SDS011;34586;53.616;10.032;2023-04-29T08:24:48;6.27;;;5.30;;
10872;SDS011;34586;53.616;10.032;2023-04-29T08:27:14;7.97;;;5.00;;
10872;SDS011;34586;53.616;10.032;2023-04-29T08:29:40;5.67;;;5.03;;
10872;SDS011;34586;53.616;10.032;2023-04-29T08:32:06;6.37;;;5.63;;
10872;SDS011;34586;53.616;10.032;2023-04-29T08:34:32;7.37;;;5.43;;
10872;SDS011;34586;53.616;10.032;2023-04-29T08:37:00;10.30;;;6.00;;
10872;SDS011;34586;53.616;10.032;2023-04-29T08:39:29;9.03;;;6.00;;
10872;SDS011;34586;53.616;10.032;2023-04-29T08:41:55;7.97;;;5.63;;
10872;SDS011;34586;53.616;10.032;2023-04-29T08:44:26;9.30;;;5.90;;
10872;SDS011;34586;53.616;10.032;2023-04-29T08:46:52;7.47;;;5.70;;
10872;SDS011;34586;53.616;10.032;2023-04-29T08:49:19;8.17;;;7.00;;
10872;SDS011;34586;53.616;10.032;2023-04-29T08:51:49;8.43;;;6.17;;
10872;SDS011;34586;53.616;10.032;2023-04-29T08:54:17;9.57;;;5.90;;
10872;SDS011;34586;53.616;10.032;2023-04-29T08:56:46;8.40;;;6.17;;
10872;SDS011;34586;53.616;10.032;2023-04-29T08:59:13;10.93;;;6.17;;
10872;SDS011;34586;53.616;10.032;2023-04-29T09:01:42;9.70;;;7.07;;
10872;SDS011;34586;53.616;10.032;2023-04-29T09:06:46;8.33;;;6.60;;
10872;SDS011;34586;53.616;10.032;2023-04-29T09:09:12;10.50;;;7.20;;
10872;SDS011;34586;53.616;10.032;2023-04-29T09:11:39;11.07;;;6.43;;
10872;SDS011;34586;53.616;10.032;2023-04-29T09:14:05;9.57;;;6.87;;
10872;SDS011;34586;53.616;10.032;2023-04-29T09:16:32;9.10;;;7.03;;
10872;SDS011;34586;53.616;10.032;2023-04-29T09:18:59;7.70;;;6.90;;
10872;SDS011;34586;53.616;10.032;2023-04-29T09:21:25;7.07;;;6.27;;
10872;SDS011;34586;53.616;10.032;2023-04-29T09:23:56;7.87;;;6.20;;
10872;SDS011;34586;53.616;10.032;2023-04-29T09:26:25;8.83;;;6.33;;
10872;SDS011;34586;53.616;10.032;2023-04-29T09:29:24;8.77;;;6.60;;
10872;SDS011;34586;53.616;10.032;2023-04-29T09:31:43;7.50;;;6.70;;
10872;SDS011;34586;53.616;10.032;2023-04-29T09:34:10;7.50;;;6.47;;
10872;SDS011;34586;53.616;10.032;2023-04-29T09:36:50;9.43;;;6.83;;
10872;SDS011;34586;53.616;10.032;2023-04-29T09:39:21;8.10;;;6.63;;
10872;SDS011;34586;53.616;10.032;2023-04-29T09:44:16;6.97;;;5.80;;
10872;SDS011;34586;53.616;10.032;2023-04-29T09:46:43;6.80;;;5.43;;
10872;SDS011;34586;53.616;10.032;2023-04-29T09:49:23;8.03;;;6.07;;
10872;SDS011;34586;53.616;10.032;2023-04-29T09:51:53;7.13;;;5.50;;
10872;SDS011;34586;53.616;10.032;2023-04-29T09:54:24;6.77;;;5.13;;
10872;SDS011;34586;53.616;10.032;2023-04-29T09:56:54;6.13;;;4.93;;
10872;SDS011;34586;53.616;10.032;2023-04-29T09:59:21;6.93;;;5.63;;
10872;SDS011;34586;53.616;10.032;2023-04-29T10:01:51;10.67;;;5.37;;
10872;SDS011;34586;53.616;10.032;2023-04-29T10:04:21;8.37;;;5.63;;
10872;SDS011;34586;53.616;10.032;2023-04-29T10:06:49;8.27;;;5.67;;
10872;SDS011;34586;53.616;10.032;2023-04-29T10:09:17;6.43;;;5.70;;
10872;SDS011;34586;53.616;10.032;2023-04-29T10:11:44;8.57;;;5.83;;
10872;SDS011;34586;53.616;10.032;2023-04-29T10:14:12;7.23;;;5.33;;
10872;SDS011;34586;53.616;10.032;2023-04-29T10:17:02;6.27;;;5.60;;
10872;SDS011;34586;53.616;10.032;2023-04-29T10:19:33;8.03;;;5.17;;
10872;SDS011;34586;53.616;10.032;2023-04-29T10:22:21;6.03;;;5.23;;
10872;SDS011;34586;53.616;10.032;2023-04-29T10:25:10;4.93;;;4.37;;
10872;SDS011;34586;53.616;10.032;2023-04-29T10:27:38;5.00;;;4.60;;
10872;SDS011;34586;53.616;10.032;2023-04-29T10:30:08;6.13;;;4.67;;
10872;SDS011;34586;53.616;10.032;2023-04-29T10:32:39;8.10;;;4.87;;
10872;SDS011;34586;53.616;10.032;2023-04-29T10:35:09;5.37;;;4.73;;
10872;SDS011;34586;53.616;10.032;2023-04-29T10:37:37;6.13;;;5.00;;
10872;SDS011;34586;53.616;10.032;2023-04-29T10:43:00;6.83;;;5.17;;
10872;SDS011;34586;53.616;10.032;2023-04-29T10:45:27;6.60;;;5.10;;
10872;SDS011;34586;53.616;10.032;2023-04-29T10:53:19;8.53;;;6.03;;
10872;SDS011;34586;53.616;10.032;2023-04-29T10:55:47;5.70;;;5.20;;
10872;SDS011;34586;53.616;10.032;2023-04-29T11:00:57;7.17;;;6.13;;
10872;SDS011;34586;53.616;10.032;2023-04-29T11:06:21;7.47;;;5.57;;
10872;SDS011;34586;53.616;10.032;2023-04-29T11:09:12;9.77;;;5.47;;
10872;SDS011;34586;53.616;10.032;2023-04-29T11:12:07;8.27;;;5.60;;
10872;SDS011;34586;53.616;10.032;2023-04-29T11:14:35;5.53;;;5.03;;
10872;SDS011;34586;53.616;10.032;2023-04-29T11:17:04;8.53;;;5.30;;
10872;SDS011;34586;53.616;10.032;2023-04-29T11:19:40;7.47;;;4.97;;
10872;SDS011;34586;53.616;10.032;2023-04-29T11:25:02;7.83;;;5.10;;
10872;SDS011;34586;53.616;10.032;2023-04-29T11:27:33;7.33;;;4.73;;
10872;SDS011;34586;53.616;10.032;2023-04-29T11:30:02;9.17;;;5.33;;
10872;SDS011;34586;53.616;10.032;2023-04-29T11:32:36;9.03;;;5.93;;
10872;SDS011;34586;53.616;10.032;2023-04-29T11:35:15;5.93;;;4.80;;
10872;SDS011;34586;53.616;10.032;2023-04-29T11:37:44;7.57;;;5.53;;
10872;SDS011;34586;53.616;10.032;2023-04-29T11:40:11;6.03;;;5.33;;
10872;SDS011;34586;53.616;10.032;2023-04-29T11:42:45;7.53;;;5.87;;
10872;SDS011;34586;53.616;10.032;2023-04-29T11:45:12;7.33;;;5.53;;
10872;SDS011;34586;53.616;10.032;2023-04-29T11:47:41;6.60;;;5.90;;
10872;SDS011;34586;53.616;10.032;2023-04-29T11:50:09;6.40;;;5.80;;
10872;SDS011;34586;53.616;10.032;2023-04-29T11:52:36;6.80;;;5.70;;
10872;SDS011;34586;53.616;10.032;2023-04-29T11:55:03;7.63;;;4.87;;
10872;SDS011;34586;53.616;10.032;2023-04-29T11:57:33;9.47;;;4.87;;
10872;SDS011;34586;53.616;10.032;2023-04-29T11:59:58;6.90;;;5.20;;
10872;SDS011;34586;53.616;10.032;2023-04-29T12:02:31;6.27;;;4.60;;
10872;SDS011;34586;53.616;10.032;2023-04-29T12:04:58;6.47;;;4.47;;
10872;SDS011;34586;53.616;10.032;2023-04-29T12:07:30;4.50;;;4.07;;
10872;SDS011;34586;53.616;10.032;2023-04-29T12:09:56;5.90;;;4.50;;
10872;SDS011;34586;53.616;10.032;2023-04-29T12:12:22;5.20;;;4.40;;
10872;SDS011;34586;53.616;10.032;2023-04-29T12:14:48;5.53;;;4.50;;
10872;SDS011;34586;53.616;10.032;2023-04-29T12:17:14;5.00;;;4.50;;
10872;SDS011;34586;53.616;10.032;2023-04-29T12:19:47;5.97;;;4.27;;
10872;SDS011;34586;53.616;10.032;2023-04-29T12:22:13;6.10;;;3.63;;
10872;SDS011;34586;53.616;10.032;2023-04-29T12:24:39;6.33;;;3.80;;
10872;SDS011;34586;53.616;10.032;2023-04-29T12:27:08;3.87;;;3.50;;
10872;SDS011;34586;53.616;10.032;2023-04-29T12:29:35;4.07;;;3.37;;
10872;SDS011;34586;53.616;10.032;2023-04-29T12:32:01;4.03;;;3.07;;
10872;SDS011;34586;53.616;10.032;2023-04-29T12:34:28;3.80;;;2.47;;
10872;SDS011;34586;53.616;10.032;2023-04-29T12:36:56;3.97;;;2.50;;
10872;SDS011;34586;53.616;10.032;2023-04-29T12:39:26;4.40;;;2.20;;
10872;SDS011;34586;53.616;10.032;2023-04-29T12:41:58;3.13;;;2.17;;
10872;SDS011;34586;53.616;10.032;2023-04-29T12:44:33;3.93;;;1.90;;
10872;SDS011;34586;53.616;10.032;2023-04-29T12:47:10;3.00;;;2.10;;
10872;SDS011;34586;53.616;10.032;2023-04-29T12:49:37;3.33;;;2.30;;
10872;SDS011;34586;53.616;10.032;2023-04-29T12:52:09;3.53;;;1.87;;
10872;SDS011;34586;53.616;10.032;2023-04-29T12:54:35;3.33;;;2.63;;
10872;SDS011;34586;53.616;10.032;2023-04-29T12:57:07;3.00;;;2.17;;
10872;SDS011;34586;53.616;10.032;2023-04-29T12:59:33;4.37;;;2.67;;
10872;SDS011;34586;53.616;10.032;2023-04-29T13:01:59;4.50;;;2.50;;
10872;SDS011;34586;53.616;10.032;2023-04-29T13:04:25;5.67;;;2.60;;
10872;SDS011;34586;53.616;10.032;2023-04-29T13:06:51;3.40;;;2.70;;
10872;SDS011;34586;53.616;10.032;2023-04-29T13:09:23;3.40;;;3.10;;
10872;SDS011;34586;53.616;10.032;2023-04-29T13:11:49;3.83;;;3.10;;
10872;SDS011;34586;53.616;10.032;2023-04-29T13:14:19;4.40;;;3.10;;
10872;SDS011;34586;53.616;10.032;2023-04-29T13:16:45;3.77;;;3.20;;
10872;SDS011;34586;53.616;10.032;2023-04-29T13:19:10;4.43;;;2.90;;
10872;SDS011;34586;53.616;10.032;2023-04-29T13:21:37;5.00;;;2.80;;
10872;SDS011;34586;53.616;10.032;2023-04-29T13:24:03;5.30;;;3.20;;
10872;SDS011;34586;53.616;10.032;2023-04-29T13:26:29;6.00;;;2.83;;
10872;SDS011;34586;53.616;10.032;2023-04-29T13:28:55;4.90;;;2.70;;
10872;SDS011;34586;53.616;10.032;2023-04-29T13:31:22;4.90;;;2.57;;
10872;SDS011;34586;53.616;10.032;2023-04-29T13:33:48;6.27;;;2.50;;
10872;SDS011;34586;53.616;10.032;2023-04-29T13:36:14;4.27;;;2.30;;
10872;SDS011;34586;53.616;10.032;2023-04-29T13:38:41;2.20;;;1.73;;
10872;SDS011;34586;53.616;10.032;2023-04-29T13:41:07;3.20;;;1.60;;
10872;SDS011;34586;53.616;10.032;2023-04-29T13:43:33;1.70;;;1.07;;
10872;SDS011;34586;53.616;10.032;2023-04-29T13:45:59;2.00;;;1.47;;
10872;SDS011;34586;53.616;10.032;2023-04-29T13:48:24;2.63;;;1.00;;
10872;SDS011;34586;53.616;10.032;2023-04-29T13:50:50;1.87;;;1.00;;
10872;SDS011;34586;53.616;10.032;2023-04-29T13:53:16;2.37;;;1.20;;
10872;SDS011;34586;53.616;10.032;2023-04-29T13:55:44;1.40;;;0.90;;
10872;SDS011;34586;53.616;10.032;2023-04-29T13:58:10;2.63;;;1.00;;
10872;SDS011;34586;53.616;10.032;2023-04-29T14:00:36;2.40;;;1.20;;
10872;SDS011;34586;53.616;10.032;2023-04-29T14:03:03;0.83;;;0.80;;
10872;SDS011;34586;53.616;10.032;2023-04-29T14:05:29;2.30;;;1.13;;
10872;SDS011;34586;53.616;10.032;2023-04-29T14:07:55;2.07;;;1.10;;
10872;SDS011;34586;53.616;10.032;2023-04-29T14:10:20;2.53;;;1.40;;
10872;SDS011;34586;53.616;10.032;2023-04-29T14:12:46;2.90;;;1.40;;
10872;SDS011;34586;53.616;10.032;2023-04-29T14:15:12;3.20;;;1.20;;
10872;SDS011;34586;53.616;10.032;2023-04-29T14:17:39;1.70;;;0.93;;
10872;SDS011;34586;53.616;10.032;2023-04-29T14:20:07;2.73;;;1.20;;
10872;SDS011;34586;53.616;10.032;2023-04-29T14:22:33;2.57;;;1.30;;
10872;SDS011;34586;53.616;10.032;2023-04-29T14:24:59;4.00;;;1.30;;
10872;SDS011;34586;53.616;10.032;2023-04-29T14:27:24;4.00;;;1.33;;
10872;SDS011;34586;53.616;10.032;2023-04-29T14:29:50;3.30;;;1.30;;
10872;SDS011;34586;53.616;10.032;2023-04-29T14:32:16;3.03;;;1.00;;
10872;SDS011;34586;53.616;10.032;2023-04-29T14:34:41;1.90;;;1.00;;
10872;SDS011;34586;53.616;10.032;2023-04-29T14:37:07;2.73;;;0.83;;
10872;SDS011;34586;53.616;10.032;2023-04-29T14:39:32;2.00;;;0.93;;
10872;SDS011;34586;53.616;10.032;2023-04-29T14:41:58;0.97;;;0.83;;
10872;SDS011;34586;53.616;10.032;2023-04-29T14:44:24;1.90;;;0.80;;
10872;SDS011;34586;53.616;10.032;2023-04-29T14:46:49;1.40;;;1.13;;
10872;SDS011;34586;53.616;10.032;2023-04-29T14:49:15;3.73;;;0.80;;
10872;SDS011;34586;53.616;10.032;2023-04-29T14:51:41;2.23;;;1.10;;
10872;SDS011;34586;53.616;10.032;2023-04-29T14:54:06;1.13;;;1.03;;
10872;SDS011;34586;53.616;10.032;2023-04-29T14:56:33;2.90;;;1.17;;
10872;SDS011;34586;53.616;10.032;2023-04-29T14:59:00;1.67;;;0.90;;